sensor_id;sensor_type;location;lat;lon;timestamp;temperature;humidity
11270;DHT22;5692;48.956;9.200;2024-02-26T00:27:34;7.60;99.90
11270;DHT22;5692;48.956;9.200;2024-02-26T00:32:27;7.50;99.90
11270;DHT22;5692;48.956;9.200;2024-02-26T01:11:41;7.80;99.90
11270;DHT22;5692;48.956;9.200;2024-02-26T01:16:33;7.70;99.90
11270;DHT22;5692;48.956;9.200;2024-02-26T01:18:59;7.60;99.90
11270;DHT22;5692;48.956;9.200;2024-02-26T01:21:25;7.60;99.90
11270;DHT22;5692;48.956;9.200;2024-02-26T01:23:54;7.40;99.90
11270;DHT22;5692;48.956;9.200;2024-02-26T01:26:23;7.50;99.90
11270;DHT22;5692;48.956;9.200;2024-02-26T01:28:51;7.10;99.90
11270;DHT22;5692;48.956;9.200;2024-02-26T01:31:20;7.50;99.90
11270;DHT22;5692;48.956;9.200;2024-02-26T01:33:46;7.80;99.90
11270;DHT22;5692;48.956;9.200;2024-02-26T01:36:12;7.10;99.90
11270;DHT22;5692;48.956;9.200;2024-02-26T01:38:40;7.20;99.90
11270;DHT22;5692;48.956;9.200;2024-02-26T01:41:13;6.90;99.90
11270;DHT22;5692;48.956;9.200;2024-02-26T02:05:51;7.30;99.90
11270;DHT22;5692;48.956;9.200;2024-02-26T05:19:21;6.90;99.90
11270;DHT22;5692;48.956;9.200;2024-02-26T05:21:47;7.00;99.90
11270;DHT22;5692;48.956;9.200;2024-02-26T05:24:22;7.00;99.90
11270;DHT22;5692;48.956;9.200;2024-02-26T05:26:48;6.90;99.90
11270;DHT22;5692;48.956;9.200;2024-02-26T05:29:16;6.90;99.90
11270;DHT22;5692;48.956;9.200;2024-02-26T05:31:42;7.00;99.90
11270;DHT22;5692;48.956;9.200;2024-02-26T05:34:08;7.20;99.90
11270;DHT22;5692;48.956;9.200;2024-02-26T05:36:34;7.10;99.90
11270;DHT22;5692;48.956;9.200;2024-02-26T05:39:00;7.00;99.90
11270;DHT22;5692;48.956;9.200;2024-02-26T05:41:27;7.20;99.90
11270;DHT22;5692;48.956;9.200;2024-02-26T05:43:53;7.00;99.90
11270;DHT22;5692;48.956;9.200;2024-02-26T05:51:18;7.00;99.90
11270;DHT22;5692;48.956;9.200;2024-02-26T05:53:44;7.00;99.90
11270;DHT22;5692;48.956;9.200;2024-02-26T05:58:37;6.60;99.90
11270;DHT22;5692;48.956;9.200;2024-02-26T06:25:37;7.00;99.90
11270;DHT22;5692;48.956;9.200;2024-02-26T06:47:48;7.10;99.90
11270;DHT22;5692;48.956;9.200;2024-02-26T06:50:29;7.00;99.90
11270;DHT22;5692;48.956;9.200;2024-02-26T06:52:55;6.90;99.90
11270;DHT22;5692;48.956;9.200;2024-02-26T06:55:30;7.00;99.90
11270;DHT22;5692;48.956;9.200;2024-02-26T06:57:56;7.00;99.90
11270;DHT22;5692;48.956;9.200;2024-02-26T07:00:21;7.00;99.90
11270;DHT22;5692;48.956;9.200;2024-02-26T07:02:47;6.90;99.90
11270;DHT22;5692;48.956;9.200;2024-02-26T07:05:13;6.90;99.90
11270;DHT22;5692;48.956;9.200;2024-02-26T07:07:39;6.90;99.90
11270;DHT22;5692;48.956;9.200;2024-02-26T07:10:08;7.10;99.90
11270;DHT22;5692;48.956;9.200;2024-02-26T08:46:26;7.60;99.90
11270;DHT22;5692;48.956;9.200;2024-02-26T08:48:52;7.50;99.90
11270;DHT22;5692;48.956;9.200;2024-02-26T08:51:18;7.50;99.90
11270;DHT22;5692;48.956;9.200;2024-02-26T08:53:48;7.50;99.90
11270;DHT22;5692;48.956;9.200;2024-02-26T08:56:15;7.60;99.90
11270;DHT22;5692;48.956;9.200;2024-02-26T08:58:43;7.70;99.90
11270;DHT22;5692;48.956;9.200;2024-02-26T09:01:16;7.70;99.90
11270;DHT22;5692;48.956;9.200;2024-02-26T09:03:42;7.90;99.90
11270;DHT22;5692;48.956;9.200;2024-02-26T09:06:15;8.10;99.90
11270;DHT22;5692;48.956;9.200;2024-02-26T09:08:41;8.00;99.90
11270;DHT22;5692;48.956;9.200;2024-02-26T09:11:09;8.00;99.90
11270;DHT22;5692;48.956;9.200;2024-02-26T11:19:30;13.30;99.90
11270;DHT22;5692;48.956;9.200;2024-02-26T11:22:01;13.30;99.90
11270;DHT22;5692;48.956;9.200;2024-02-26T11:24:30;13.20;99.90
11270;DHT22;5692;48.956;9.200;2024-02-26T11:27:02;13.30;99.90
11270;DHT22;5692;48.956;9.200;2024-02-26T11:29:39;13.40;99.90
11270;DHT22;5692;48.956;9.200;2024-02-26T11:37:16;13.70;99.90
11270;DHT22;5692;48.956;9.200;2024-02-26T11:39:43;13.80;99.90
11270;DHT22;5692;48.956;9.200;2024-02-26T11:42:18;14.10;99.90
11270;DHT22;5692;48.956;9.200;2024-02-26T12:02:46;14.80;99.90
11270;DHT22;5692;48.956;9.200;2024-02-26T12:05:24;14.80;99.90
11270;DHT22;5692;48.956;9.200;2024-02-26T12:07:55;14.80;99.90
11270;DHT22;5692;48.956;9.200;2024-02-26T12:10:28;14.60;99.90
11270;DHT22;5692;48.956;9.200;2024-02-26T12:15:36;15.30;99.90
11270;DHT22;5692;48.956;9.200;2024-02-26T12:18:03;15.80;99.90
11270;DHT22;5692;48.956;9.200;2024-02-26T12:20:59;15.60;99.90
11270;DHT22;5692;48.956;9.200;2024-02-26T12:23:26;15.50;99.90
11270;DHT22;5692;48.956;9.200;2024-02-26T12:28:30;15.00;99.90
11270;DHT22;5692;48.956;9.200;2024-02-26T12:30:56;15.00;99.90
11270;DHT22;5692;48.956;9.200;2024-02-26T12:33:25;15.10;99.90
11270;DHT22;5692;48.956;9.200;2024-02-26T12:38:20;14.90;99.90
11270;DHT22;5692;48.956;9.200;2024-02-26T12:40:46;14.60;99.90
11270;DHT22;5692;48.956;9.200;2024-02-26T12:43:17;15.10;99.90
11270;DHT22;5692;48.956;9.200;2024-02-26T12:45:43;15.10;99.90
11270;DHT22;5692;48.956;9.200;2024-02-26T12:50:39;15.30;99.90
11270;DHT22;5692;48.956;9.200;2024-02-26T12:53:05;15.30;99.90
11270;DHT22;5692;48.956;9.200;2024-02-26T12:55:32;15.40;99.90
11270;DHT22;5692;48.956;9.200;2024-02-26T13:05:33;14.90;99.90
11270;DHT22;5692;48.956;9.200;2024-02-26T13:07:59;14.80;99.90
11270;DHT22;5692;48.956;9.200;2024-02-26T13:15:23;14.70;99.90
11270;DHT22;5692;48.956;9.200;2024-02-26T13:17:49;14.70;99.90
11270;DHT22;5692;48.956;9.200;2024-02-26T13:20:28;14.90;99.90
11270;DHT22;5692;48.956;9.200;2024-02-26T13:23:04;15.00;99.90
11270;DHT22;5692;48.956;9.200;2024-02-26T13:25:34;15.20;99.90
11270;DHT22;5692;48.956;9.200;2024-02-26T13:28:16;15.10;99.90
11270;DHT22;5692;48.956;9.200;2024-02-26T13:30:56;15.40;99.90
11270;DHT22;5692;48.956;9.200;2024-02-26T13:33:29;15.50;99.90
11270;DHT22;5692;48.956;9.200;2024-02-26T13:35:56;15.70;99.90
11270;DHT22;5692;48.956;9.200;2024-02-26T13:38:22;15.60;99.90
11270;DHT22;5692;48.956;9.200;2024-02-26T13:40:50;15.60;99.90
11270;DHT22;5692;48.956;9.200;2024-02-26T13:43:18;16.20;99.90
11270;DHT22;5692;48.956;9.200;2024-02-26T13:45:45;16.30;99.90
11270;DHT22;5692;48.956;9.200;2024-02-26T13:48:11;16.80;99.90
11270;DHT22;5692;48.956;9.200;2024-02-26T13:50:43;16.60;99.90
11270;DHT22;5692;48.956;9.200;2024-02-26T13:55:40;16.30;99.90
11270;DHT22;5692;48.956;9.200;2024-02-26T13:58:08;16.80;99.90
11270;DHT22;5692;48.956;9.200;2024-02-26T14:00:36;16.70;99.90
11270;DHT22;5692;48.956;9.200;2024-02-26T14:13:03;15.80;99.90
11270;DHT22;5692;48.956;9.200;2024-02-26T14:30:23;15.70;99.90
11270;DHT22;5692;48.956;9.200;2024-02-26T14:38:03;15.10;99.90
11270;DHT22;5692;48.956;9.200;2024-02-26T14:40:37;15.30;99.90
11270;DHT22;5692;48.956;9.200;2024-02-26T14:43:02;15.30;99.90
11270;DHT22;5692;48.956;9.200;2024-02-26T14:45:30;15.30;99.90
11270;DHT22;5692;48.956;9.200;2024-02-26T14:47:56;15.40;99.90
11270;DHT22;5692;48.956;9.200;2024-02-26T14:50:22;16.00;99.90
11270;DHT22;5692;48.956;9.200;2024-02-26T14:52:57;16.40;99.90
11270;DHT22;5692;48.956;9.200;2024-02-26T14:55:31;16.40;99.90
11270;DHT22;5692;48.956;9.200;2024-02-26T14:58:06;16.20;99.90
11270;DHT22;5692;48.956;9.200;2024-02-26T15:05:27;15.60;99.90
11270;DHT22;5692;48.956;9.200;2024-02-26T15:07:56;15.50;99.90
11270;DHT22;5692;48.956;9.200;2024-02-26T15:33:57;14.60;99.90
11270;DHT22;5692;48.956;9.200;2024-02-26T15:38:52;14.40;99.90
11270;DHT22;5692;48.956;9.200;2024-02-26T15:41:20;14.40;99.90
11270;DHT22;5692;48.956;9.200;2024-02-26T15:46:16;14.30;99.90
11270;DHT22;5692;48.956;9.200;2024-02-26T15:48:57;14.30;99.90
11270;DHT22;5692;48.956;9.200;2024-02-26T15:51:26;14.40;99.90
11270;DHT22;5692;48.956;9.200;2024-02-26T15:53:54;14.40;99.90
11270;DHT22;5692;48.956;9.200;2024-02-26T15:56:35;14.10;99.90
11270;DHT22;5692;48.956;9.200;2024-02-26T15:59:12;14.30;99.90
11270;DHT22;5692;48.956;9.200;2024-02-26T16:01:50;13.90;99.90
11270;DHT22;5692;48.956;9.200;2024-02-26T16:04:18;14.20;99.90
11270;DHT22;5692;48.956;9.200;2024-02-26T16:09:24;14.00;99.90
11270;DHT22;5692;48.956;9.200;2024-02-26T16:11:53;13.90;99.90
11270;DHT22;5692;48.956;9.200;2024-02-26T16:14:48;13.80;99.90
11270;DHT22;5692;48.956;9.200;2024-02-26T16:17:51;13.80;99.90
11270;DHT22;5692;48.956;9.200;2024-02-26T16:20:22;13.70;99.90
11270;DHT22;5692;48.956;9.200;2024-02-26T16:22:51;13.80;99.90
11270;DHT22;5692;48.956;9.200;2024-02-26T16:28:03;13.40;99.90
11270;DHT22;5692;48.956;9.200;2024-02-26T16:32:58;13.20;99.90
11270;DHT22;5692;48.956;9.200;2024-02-26T16:35:33;13.40;99.90
11270;DHT22;5692;48.956;9.200;2024-02-26T18:02:00;12.20;99.90
11270;DHT22;5692;48.956;9.200;2024-02-26T23:58:54;9.60;99.90
